sensor_id;sensor_type;location;lat;lon;timestamp;pressure;altitude;pressure_sealevel;temperature;humidity
68941;BME280;55982;51.476;7.552;2024-03-07T00:00:27;100690.03;;;4.63;100.00
68941;BME280;55982;51.476;7.552;2024-03-07T00:02:53;100692.63;;;4.57;100.00
68941;BME280;55982;51.476;7.552;2024-03-07T00:05:20;100694.31;;;4.53;100.00
68941;BME280;55982;51.476;7.552;2024-03-07T00:10:13;100693.41;;;4.44;100.00
68941;BME280;55982;51.476;7.552;2024-03-07T00:12:40;100694.25;;;4.35;100.00
68941;BME280;55982;51.476;7.552;2024-03-07T00:15:09;100677.81;;;4.32;100.00
68941;BME280;55982;51.476;7.552;2024-03-07T00:17:35;100688.19;;;4.32;100.00
68941;BME280;55982;51.476;7.552;2024-03-07T00:25:03;100699.34;;;4.22;100.00
68941;BME280;55982;51.476;7.552;2024-03-07T00:27:32;100702.84;;;4.28;100.00
68941;BME280;55982;51.476;7.552;2024-03-07T00:29:58;100700.25;;;4.30;100.00
68941;BME280;55982;51.476;7.552;2024-03-07T00:32:23;100707.19;;;4.37;100.00
68941;BME280;55982;51.476;7.552;2024-03-07T00:37:16;100714.22;;;4.56;100.00
68941;BME280;55982;51.476;7.552;2024-03-07T00:39:42;100709.03;;;4.56;100.00
68941;BME280;55982;51.476;7.552;2024-03-07T00:44:34;100713.50;;;4.86;100.00
68941;BME280;55982;51.476;7.552;2024-03-07T00:49:25;100717.88;;;5.03;100.00
68941;BME280;55982;51.476;7.552;2024-03-07T00:51:50;100723.06;;;5.09;100.00
68941;BME280;55982;51.476;7.552;2024-03-07T00:54:16;100714.41;;;5.07;100.00
68941;BME280;55982;51.476;7.552;2024-03-07T00:56:41;100712.72;;;5.15;100.00
68941;BME280;55982;51.476;7.552;2024-03-07T00:59:07;100713.59;;;5.26;100.00
68941;BME280;55982;51.476;7.552;2024-03-07T01:01:32;100709.28;;;5.25;100.00
68941;BME280;55982;51.476;7.552;2024-03-07T01:04:03;100705.84;;;5.23;100.00
68941;BME280;55982;51.476;7.552;2024-03-07T01:06:28;100702.38;;;5.21;100.00
68941;BME280;55982;51.476;7.552;2024-03-07T01:08:53;100702.34;;;5.15;100.00
68941;BME280;55982;51.476;7.552;2024-03-07T01:11:19;100707.56;;;5.20;100.00
68941;BME280;55982;51.476;7.552;2024-03-07T01:13:44;100700.66;;;5.20;100.00
68941;BME280;55982;51.476;7.552;2024-03-07T01:16:09;100701.50;;;5.18;100.00
68941;BME280;55982;51.476;7.552;2024-03-07T01:18:35;100704.09;;;5.21;100.00
68941;BME280;55982;51.476;7.552;2024-03-07T01:21:00;100698.91;;;5.16;100.00
68941;BME280;55982;51.476;7.552;2024-03-07T01:23:26;100700.59;;;5.02;100.00
68941;BME280;55982;51.476;7.552;2024-03-07T01:28:20;100697.09;;;4.96;100.00
68941;BME280;55982;51.476;7.552;2024-03-07T01:30:47;100697.06;;;4.85;100.00
68941;BME280;55982;51.476;7.552;2024-03-07T01:33:12;100692.72;;;4.83;100.00
68941;BME280;55982;51.476;7.552;2024-03-07T01:35:38;100693.63;;;4.88;100.00
68941;BME280;55982;51.476;7.552;2024-03-07T01:40:30;100691.00;;;4.85;100.00
68941;BME280;55982;51.476;7.552;2024-03-07T01:42:55;100686.63;;;4.64;100.00
68941;BME280;55982;51.476;7.552;2024-03-07T01:45:20;100691.75;;;4.55;100.00
68941;BME280;55982;51.476;7.552;2024-03-07T01:47:46;100686.47;;;4.37;100.00
68941;BME280;55982;51.476;7.552;2024-03-07T01:50:11;100681.22;;;4.25;100.00
68941;BME280;55982;51.476;7.552;2024-03-07T01:52:39;100682.09;;;4.27;100.00
68941;BME280;55982;51.476;7.552;2024-03-07T01:55:04;100670.00;;;4.26;100.00
68941;BME280;55982;51.476;7.552;2024-03-07T01:57:30;100674.28;;;4.18;100.00
68941;BME280;55982;51.476;7.552;2024-03-07T02:04:47;100662.91;;;3.98;100.00
68941;BME280;55982;51.476;7.552;2024-03-07T02:07:13;100664.66;;;3.97;100.00
68941;BME280;55982;51.476;7.552;2024-03-07T02:09:38;100665.47;;;3.92;100.00
68941;BME280;55982;51.476;7.552;2024-03-07T02:12:03;100664.56;;;3.87;100.00
68941;BME280;55982;51.476;7.552;2024-03-07T02:14:29;100656.75;;;3.78;100.00
68941;BME280;55982;51.476;7.552;2024-03-07T02:16:54;100660.16;;;3.77;100.00
68941;BME280;55982;51.476;7.552;2024-03-07T02:21:46;100664.44;;;3.68;100.00
68941;BME280;55982;51.476;7.552;2024-03-07T02:24:11;100661.84;;;3.68;100.00
68941;BME280;55982;51.476;7.552;2024-03-07T02:26:37;100651.63;;;3.84;100.00
68941;BME280;55982;51.476;7.552;2024-03-07T02:29:03;100662.06;;;3.99;100.00
68941;BME280;55982;51.476;7.552;2024-03-07T02:31:29;100664.69;;;4.03;100.00
68941;BME280;55982;51.476;7.552;2024-03-07T02:34:13;100667.28;;;4.08;100.00
68941;BME280;55982;51.476;7.552;2024-03-07T02:36:38;100658.66;;;4.03;100.00
68941;BME280;55982;51.476;7.552;2024-03-07T02:39:03;100658.53;;;3.88;100.00
68941;BME280;55982;51.476;7.552;2024-03-07T02:41:29;100657.56;;;3.73;100.00
68941;BME280;55982;51.476;7.552;2024-03-07T02:43:54;100656.00;;;3.94;100.00
68941;BME280;55982;51.476;7.552;2024-03-07T02:46:20;100655.88;;;3.79;100.00
68941;BME280;55982;51.476;7.552;2024-03-07T02:48:45;100655.88;;;3.79;100.00
68941;BME280;55982;51.476;7.552;2024-03-07T02:51:10;100656.84;;;3.90;100.00
68941;BME280;55982;51.476;7.552;2024-03-07T02:53:36;100658.50;;;3.82;100.00
68941;BME280;55982;51.476;7.552;2024-03-07T02:56:03;100658.44;;;3.72;100.00
68941;BME280;55982;51.476;7.552;2024-03-07T02:58:32;100653.09;;;3.54;100.00
68941;BME280;55982;51.476;7.552;2024-03-07T03:00:58;100658.28;;;3.54;100.00
68941;BME280;55982;51.476;7.552;2024-03-07T03:03:25;100654.81;;;3.55;100.00
68941;BME280;55982;51.476;7.552;2024-03-07T03:05:50;100646.16;;;3.47;100.00
68941;BME280;55982;51.476;7.552;2024-03-07T03:08:15;100642.66;;;3.42;100.00
68941;BME280;55982;51.476;7.552;2024-03-07T03:10:40;100639.16;;;3.37;100.00
68941;BME280;55982;51.476;7.552;2024-03-07T03:13:06;100632.16;;;3.24;100.00
68941;BME280;55982;51.476;7.552;2024-03-07T03:17:57;100629.50;;;3.18;100.00
68941;BME280;55982;51.476;7.552;2024-03-07T03:20:25;100627.75;;;3.13;100.00
68941;BME280;55982;51.476;7.552;2024-03-07T03:22:54;100619.94;;;3.11;100.00
68941;BME280;55982;51.476;7.552;2024-03-07T03:27:46;100612.13;;;3.04;100.00
68941;BME280;55982;51.476;7.552;2024-03-07T03:30:12;100618.31;;;3.19;100.00
68941;BME280;55982;51.476;7.552;2024-03-07T03:32:37;100620.16;;;3.32;100.00
68941;BME280;55982;51.476;7.552;2024-03-07T03:35:03;100615.03;;;3.38;100.00
68941;BME280;55982;51.476;7.552;2024-03-07T03:37:28;100618.44;;;3.34;100.00
68941;BME280;55982;51.476;7.552;2024-03-07T03:39:54;100620.94;;;3.27;100.00
68941;BME280;55982;51.476;7.552;2024-03-07T03:42:20;100615.66;;;3.13;100.00
68941;BME280;55982;51.476;7.552;2024-03-07T03:47:13;100611.22;;;3.00;100.00
68941;BME280;55982;51.476;7.552;2024-03-07T03:49:38;100610.28;;;2.92;100.00
68941;BME280;55982;51.476;7.552;2024-03-07T03:52:04;100614.56;;;2.90;100.00
68941;BME280;55982;51.476;7.552;2024-03-07T03:54:29;100615.34;;;2.82;100.00
68941;BME280;55982;51.476;7.552;2024-03-07T03:56:55;100612.81;;;2.86;100.00
68941;BME280;55982;51.476;7.552;2024-03-07T03:59:20;100612.75;;;2.78;100.00
68941;BME280;55982;51.476;7.552;2024-03-07T04:01:45;100617.19;;;2.92;100.00
68941;BME280;55982;51.476;7.552;2024-03-07T04:04:10;100614.69;;;3.02;100.00
68941;BME280;55982;51.476;7.552;2024-03-07T04:06:36;100612.81;;;2.86;100.00
68941;BME280;55982;51.476;7.552;2024-03-07T04:09:01;100615.19;;;2.68;100.00
68941;BME280;55982;51.476;7.552;2024-03-07T04:11:26;100611.06;;;2.82;100.00
68941;BME280;55982;51.476;7.552;2024-03-07T04:13:53;100609.16;;;2.69;100.00
68941;BME280;55982;51.476;7.552;2024-03-07T04:16:19;100609.13;;;2.64;100.00
68941;BME280;55982;51.476;7.552;2024-03-07T04:18:44;100615.28;;;2.74;100.00
68941;BME280;55982;51.476;7.552;2024-03-07T04:21:10;100610.19;;;2.85;100.00
68941;BME280;55982;51.476;7.552;2024-03-07T04:26:00;100605.00;;;2.80;100.00
68941;BME280;55982;51.476;7.552;2024-03-07T04:28:25;100626.63;;;2.88;100.00
68941;BME280;55982;51.476;7.552;2024-03-07T04:30:50;100617.06;;;2.81;100.00
68941;BME280;55982;51.476;7.552;2024-03-07T04:33:18;100624.91;;;2.90;100.00
68941;BME280;55982;51.476;7.552;2024-03-07T04:35:44;100623.09;;;2.83;100.00
68941;BME280;55982;51.476;7.552;2024-03-07T04:38:09;100616.16;;;2.76;100.00
68941;BME280;55982;51.476;7.552;2024-03-07T04:43:07;100617.81;;;2.71;100.00
68941;BME280;55982;51.476;7.552;2024-03-07T04:45:33;100622.22;;;2.79;100.00
68941;BME280;55982;51.476;7.552;2024-03-07T04:47:59;100623.09;;;2.80;100.00
68941;BME280;55982;51.476;7.552;2024-03-07T04:50:24;100617.75;;;2.65;100.00
68941;BME280;55982;51.476;7.552;2024-03-07T04:52:49;100617.78;;;2.69;100.00
68941;BME280;55982;51.476;7.552;2024-03-07T04:55:15;100622.94;;;2.65;100.00
68941;BME280;55982;51.476;7.552;2024-03-07T04:57:40;100623.75;;;2.61;100.00
68941;BME280;55982;51.476;7.552;2024-03-07T05:00:06;100617.84;;;2.72;100.00
68941;BME280;55982;51.476;7.552;2024-03-07T05:02:32;100620.44;;;2.72;100.00
68941;BME280;55982;51.476;7.552;2024-03-07T05:04:57;100619.47;;;2.63;100.00
68941;BME280;55982;51.476;7.552;2024-03-07T05:07:23;100618.50;;;2.55;100.00
68941;BME280;55982;51.476;7.552;2024-03-07T05:09:48;100615.72;;;2.40;100.00
68941;BME280;55982;51.476;7.552;2024-03-07T05:14:41;100607.56;;;2.08;100.00
68941;BME280;55982;51.476;7.552;2024-03-07T05:17:06;100608.38;;;2.06;100.00
68941;BME280;55982;51.476;7.552;2024-03-07T05:19:33;100605.69;;;1.98;100.00
68941;BME280;55982;51.476;7.552;2024-03-07T05:24:23;100608.25;;;1.94;100.00
68941;BME280;55982;51.476;7.552;2024-03-07T05:26:49;100609.16;;;1.99;100.00
68941;BME280;55982;51.476;7.552;2024-03-07T05:29:14;100606.56;;;1.99;100.00
68941;BME280;55982;51.476;7.552;2024-03-07T05:31:40;100609.88;;;1.88;100.00
68941;BME280;55982;51.476;7.552;2024-03-07T05:34:10;100608.03;;;1.80;100.00
68941;BME280;55982;51.476;7.552;2024-03-07T05:36:35;100611.63;;;1.90;100.00
68941;BME280;55982;51.476;7.552;2024-03-07T05:39:01;100609.94;;;1.92;100.00
68941;BME280;55982;51.476;7.552;2024-03-07T05:41:30;100609.94;;;1.92;100.00
68941;BME280;55982;51.476;7.552;2024-03-07T05:43:56;100610.59;;;1.78;100.00
68941;BME280;55982;51.476;7.552;2024-03-07T05:46:22;100607.88;;;1.69;100.00
68941;BME280;55982;51.476;7.552;2024-03-07T05:48:47;100603.50;;;1.64;100.00
68941;BME280;55982;51.476;7.552;2024-03-07T05:53:53;100606.72;;;1.51;100.00
68941;BME280;55982;51.476;7.552;2024-03-07T05:56:19;100605.81;;;1.47;100.00
68941;BME280;55982;51.476;7.552;2024-03-07T05:58:44;100614.34;;;1.43;100.00
68941;BME280;55982;51.476;7.552;2024-03-07T06:01:10;100619.44;;;1.40;100.00
68941;BME280;55982;51.476;7.552;2024-03-07T06:03:36;100616.91;;;1.43;100.00
68941;BME280;55982;51.476;7.552;2024-03-07T06:06:02;100621.22;;;1.44;100.00
68941;BME280;55982;51.476;7.552;2024-03-07T06:08:27;100619.44;;;1.40;100.00
68941;BME280;55982;51.476;7.552;2024-03-07T06:10:52;100623.72;;;1.38;100.00
68941;BME280;55982;51.476;7.552;2024-03-07T06:13:18;100624.91;;;1.58;100.00
68941;BME280;55982;51.476;7.552;2024-03-07T06:15:44;100628.41;;;1.63;100.00
68941;BME280;55982;51.476;7.552;2024-03-07T06:20:36;100624.31;;;1.76;100.00
68941;BME280;55982;51.476;7.552;2024-03-07T06:25:29;100630.56;;;1.92;100.00
68941;BME280;55982;51.476;7.552;2024-03-07T06:30:39;100639.78;;;2.36;100.00
68941;BME280;55982;51.476;7.552;2024-03-07T06:33:07;100634.75;;;2.48;100.00
68941;BME280;55982;51.476;7.552;2024-03-07T06:35:33;100640.94;;;2.62;100.00
68941;BME280;55982;51.476;7.552;2024-03-07T06:38:08;100631.56;;;2.67;100.00
68941;BME280;55982;51.476;7.552;2024-03-07T06:40:34;100643.59;;;2.65;100.00
68941;BME280;55982;51.476;7.552;2024-03-07T06:42:59;100639.25;;;2.65;100.00
68941;BME280;55982;51.476;7.552;2024-03-07T06:45:25;100636.84;;;2.79;100.00
68941;BME280;55982;51.476;7.552;2024-03-07T06:47:50;100640.41;;;2.90;100.00
68941;BME280;55982;51.476;7.552;2024-03-07T06:50:17;100637.97;;;3.04;100.00
68941;BME280;55982;51.476;7.552;2024-03-07T06:52:45;100638.75;;;2.95;100.00
68941;BME280;55982;51.476;7.552;2024-03-07T06:55:12;100637.28;;;3.20;100.00
68941;BME280;55982;51.476;7.552;2024-03-07T06:57:37;100637.19;;;3.09;100.00
68941;BME280;55982;51.476;7.552;2024-03-07T07:00:02;100633.88;;;3.25;100.00
68941;BME280;55982;51.476;7.552;2024-03-07T07:02:36;100635.69;;;3.37;100.00
68941;BME280;55982;51.476;7.552;2024-03-07T07:05:01;100628.94;;;3.49;100.00
68941;BME280;55982;51.476;7.552;2024-03-07T07:07:31;100624.72;;;3.63;100.00
68941;BME280;55982;51.476;7.552;2024-03-07T07:09:57;100625.69;;;3.75;100.00
68941;BME280;55982;51.476;7.552;2024-03-07T07:12:22;100630.88;;;3.78;100.00
68941;BME280;55982;51.476;7.552;2024-03-07T07:14:47;100638.75;;;3.96;100.00
68941;BME280;55982;51.476;7.552;2024-03-07T07:17:13;100637.06;;;3.99;100.00
68941;BME280;55982;51.476;7.552;2024-03-07T07:19:38;100637.84;;;3.91;100.00
68941;BME280;55982;51.476;7.552;2024-03-07T07:22:05;100637.94;;;4.03;100.00
68941;BME280;55982;51.476;7.552;2024-03-07T07:24:31;100636.09;;;3.84;100.00
68941;BME280;55982;51.476;7.552;2024-03-07T07:26:59;100623.19;;;3.93;100.00
68941;BME280;55982;51.476;7.552;2024-03-07T07:29:25;100625.91;;;4.11;100.00
68941;BME280;55982;51.476;7.552;2024-03-07T07:31:51;100615.56;;;4.11;100.00
68941;BME280;55982;51.476;7.552;2024-03-07T07:34:17;100608.69;;;4.25;100.00
68941;BME280;55982;51.476;7.552;2024-03-07T07:36:42;100610.50;;;4.44;100.00
68941;BME280;55982;51.476;7.552;2024-03-07T07:39:07;100606.22;;;4.52;100.00
68941;BME280;55982;51.476;7.552;2024-03-07T07:41:41;100607.16;;;4.66;100.00
68941;BME280;55982;51.476;7.552;2024-03-07T07:44:07;100608.94;;;4.91;100.00
68941;BME280;55982;51.476;7.552;2024-03-07T07:46:33;100600.31;;;5.04;100.00
68941;BME280;55982;51.476;7.552;2024-03-07T07:48:59;100590.78;;;4.94;100.00
68941;BME280;55982;51.476;7.552;2024-03-07T07:51:24;100587.38;;;5.27;100.00
68941;BME280;55982;51.476;7.552;2024-03-07T07:53:50;100586.53;;;5.29;100.00
68941;BME280;55982;51.476;7.552;2024-03-07T07:56:15;100584.81;;;5.43;100.00
68941;BME280;55982;51.476;7.552;2024-03-07T07:58:41;100583.06;;;5.45;100.00
68941;BME280;55982;51.476;7.552;2024-03-07T08:01:06;100598.63;;;5.12;100.00
68941;BME280;55982;51.476;7.552;2024-03-07T08:03:34;100610.47;;;4.32;100.00
68941;BME280;55982;51.476;7.552;2024-03-07T08:06:00;100605.34;;;4.50;100.00
68941;BME280;55982;51.476;7.552;2024-03-07T08:08:26;100601.91;;;4.54;100.00
68941;BME280;55982;51.476;7.552;2024-03-07T08:10:51;100617.38;;;4.30;100.00
68941;BME280;55982;51.476;7.552;2024-03-07T08:13:16;100612.34;;;4.75;100.00
68941;BME280;55982;51.476;7.552;2024-03-07T08:15:41;100608.03;;;4.76;100.00
68941;BME280;55982;51.476;7.552;2024-03-07T08:18:07;100600.25;;;4.68;100.00
68941;BME280;55982;51.476;7.552;2024-03-07T08:20:33;100593.34;;;4.73;100.00
68941;BME280;55982;51.476;7.552;2024-03-07T08:22:59;100600.31;;;4.95;100.00
68941;BME280;55982;51.476;7.552;2024-03-07T08:25:26;100596.88;;;5.02;100.00
68941;BME280;55982;51.476;7.552;2024-03-07T08:27:52;100588.16;;;4.69;100.00
68941;BME280;55982;51.476;7.552;2024-03-07T08:30:18;100581.28;;;4.80;100.00
68941;BME280;55982;51.476;7.552;2024-03-07T08:32:45;100590.84;;;5.29;100.00
68941;BME280;55982;51.476;7.552;2024-03-07T08:35:10;100586.50;;;5.02;100.00
68941;BME280;55982;51.476;7.552;2024-03-07T08:37:37;100595.16;;;5.31;100.00
68941;BME280;55982;51.476;7.552;2024-03-07T08:40:02;100590.00;;;5.22;100.00
68941;BME280;55982;51.476;7.552;2024-03-07T08:42:32;100585.63;;;5.38;100.00
68941;BME280;55982;51.476;7.552;2024-03-07T08:44:58;100590.78;;;4.96;100.00
68941;BME280;55982;51.476;7.552;2024-03-07T08:47:24;100586.53;;;5.44;100.00
68941;BME280;55982;51.476;7.552;2024-03-07T08:49:49;100583.06;;;5.54;100.00
68941;BME280;55982;51.476;7.552;2024-03-07T08:52:15;100583.03;;;5.57;100.00
68941;BME280;55982;51.476;7.552;2024-03-07T08:54:40;100577.81;;;6.00;100.00
68941;BME280;55982;51.476;7.552;2024-03-07T08:57:05;100576.09;;;5.78;100.00
68941;BME280;55982;51.476;7.552;2024-03-07T08:59:32;100576.13;;;5.87;100.00
68941;BME280;55982;51.476;7.552;2024-03-07T09:01:58;100573.38;;;6.39;100.00
68941;BME280;55982;51.476;7.552;2024-03-07T09:04:24;100566.31;;;6.60;100.00
68941;BME280;55982;51.476;7.552;2024-03-07T09:06:50;100568.88;;;6.67;100.00
68941;BME280;55982;51.476;7.552;2024-03-07T09:09:15;100568.88;;;6.70;100.00
68941;BME280;55982;51.476;7.552;2024-03-07T09:11:42;100555.94;;;6.57;100.00
68941;BME280;55982;51.476;7.552;2024-03-07T09:14:08;100559.94;;;7.07;100.00
68941;BME280;55982;51.476;7.552;2024-03-07T09:16:34;100561.44;;;7.38;100.00
68941;BME280;55982;51.476;7.552;2024-03-07T09:19:00;100554.38;;;7.50;100.00
68941;BME280;55982;51.476;7.552;2024-03-07T09:21:25;100556.19;;;7.41;100.00
68941;BME280;55982;51.476;7.552;2024-03-07T09:23:50;100560.31;;;7.67;100.00
68941;BME280;55982;51.476;7.552;2024-03-07T09:26:15;100564.22;;;7.16;100.00
68941;BME280;55982;51.476;7.552;2024-03-07T09:28:41;100559.28;;;6.80;100.00
68941;BME280;55982;51.476;7.552;2024-03-07T09:31:06;100557.88;;;7.49;100.00
68941;BME280;55982;51.476;7.552;2024-03-07T09:33:31;100557.09;;;7.36;100.00
68941;BME280;55982;51.476;7.552;2024-03-07T09:35:56;100560.59;;;8.21;100.00
68941;BME280;55982;51.476;7.552;2024-03-07T09:38:23;100556.38;;;8.10;100.00
68941;BME280;55982;51.476;7.552;2024-03-07T09:40:48;100554.03;;;8.62;100.00
68941;BME280;55982;51.476;7.552;2024-03-07T09:43:14;100553.91;;;7.98;100.00
68941;BME280;55982;51.476;7.552;2024-03-07T09:45:41;100543.53;;;7.95;100.00
68941;BME280;55982;51.476;7.552;2024-03-07T09:48:07;100539.53;;;7.62;100.00
68941;BME280;55982;51.476;7.552;2024-03-07T09:50:34;100544.91;;;7.43;100.00
68941;BME280;55982;51.476;7.552;2024-03-07T09:53:00;100543.59;;;7.86;100.00
68941;BME280;55982;51.476;7.552;2024-03-07T09:55:26;100545.53;;;7.69;100.00
68941;BME280;55982;51.476;7.552;2024-03-07T09:57:51;100545.13;;;7.18;100.00
68941;BME280;55982;51.476;7.552;2024-03-07T10:00:18;100542.16;;;7.61;100.00
68941;BME280;55982;51.476;7.552;2024-03-07T10:02:55;100548.44;;;8.22;100.00
68941;BME280;55982;51.476;7.552;2024-03-07T10:05:22;100545.31;;;7.90;100.00
68941;BME280;55982;51.476;7.552;2024-03-07T10:07:47;100540.25;;;7.78;100.00
68941;BME280;55982;51.476;7.552;2024-03-07T10:10:13;100543.88;;;7.62;100.00
68941;BME280;55982;51.476;7.552;2024-03-07T10:12:38;100542.06;;;7.67;100.00
68941;BME280;55982;51.476;7.552;2024-03-07T10:15:03;100541.59;;;8.12;100.00
68941;BME280;55982;51.476;7.552;2024-03-07T10:17:35;100539.69;;;8.26;100.00
68941;BME280;55982;51.476;7.552;2024-03-07T10:20:00;100530.56;;;9.16;100.00
68941;BME280;55982;51.476;7.552;2024-03-07T10:22:26;100537.88;;;8.34;100.00
68941;BME280;55982;51.476;7.552;2024-03-07T10:24:52;100540.81;;;8.72;100.00
68941;BME280;55982;51.476;7.552;2024-03-07T10:27:18;100533.25;;;9.13;100.00
68941;BME280;55982;51.476;7.552;2024-03-07T10:29:45;100534.41;;;8.32;100.00
68941;BME280;55982;51.476;7.552;2024-03-07T10:32:11;100526.66;;;8.26;100.00
68941;BME280;55982;51.476;7.552;2024-03-07T10:34:38;100521.03;;;9.15;100.00
68941;BME280;55982;51.476;7.552;2024-03-07T10:37:03;100517.28;;;9.32;100.00
68941;BME280;55982;51.476;7.552;2024-03-07T10:39:29;100517.91;;;9.46;100.00
68941;BME280;55982;51.476;7.552;2024-03-07T10:41:56;100526.63;;;8.91;100.00
68941;BME280;55982;51.476;7.552;2024-03-07T10:44:30;100516.94;;;8.99;100.00
68941;BME280;55982;51.476;7.552;2024-03-07T10:46:55;100515.06;;;9.58;100.00
68941;BME280;55982;51.476;7.552;2024-03-07T10:49:22;100524.75;;;8.99;100.00
68941;BME280;55982;51.476;7.552;2024-03-07T10:51:58;100520.06;;;8.66;100.00
68941;BME280;55982;51.476;7.552;2024-03-07T10:59:26;100515.72;;;9.21;100.00
68941;BME280;55982;51.476;7.552;2024-03-07T11:04:41;100519.78;;;8.84;100.00
68941;BME280;55982;51.476;7.552;2024-03-07T11:07:06;100515.66;;;8.00;100.00
68941;BME280;55982;51.476;7.552;2024-03-07T11:09:31;100520.94;;;7.94;100.00
68941;BME280;55982;51.476;7.552;2024-03-07T11:11:59;100517.81;;;8.38;100.00
68941;BME280;55982;51.476;7.552;2024-03-07T11:14:25;100508.50;;;9.36;100.00
68941;BME280;55982;51.476;7.552;2024-03-07T11:16:51;100502.03;;;10.02;100.00
68941;BME280;55982;51.476;7.552;2024-03-07T11:19:20;100499.50;;;10.40;100.00
68941;BME280;55982;51.476;7.552;2024-03-07T11:21:51;100500.47;;;10.36;100.00
68941;BME280;55982;51.476;7.552;2024-03-07T11:24:23;100498.59;;;10.00;100.00
68941;BME280;55982;51.476;7.552;2024-03-07T11:26:50;100497.44;;;9.21;100.00
68941;BME280;55982;51.476;7.552;2024-03-07T11:32:02;100492.88;;;9.80;100.00
68941;BME280;55982;51.476;7.552;2024-03-07T11:34:29;100497.09;;;9.87;100.00
68941;BME280;55982;51.476;7.552;2024-03-07T11:36:55;100495.13;;;9.54;100.00
68941;BME280;55982;51.476;7.552;2024-03-07T11:42:27;100492.84;;;8.82;100.00
68941;BME280;55982;51.476;7.552;2024-03-07T11:44:58;100475.28;;;8.93;100.00
68941;BME280;55982;51.476;7.552;2024-03-07T11:47:26;100471.25;;;9.26;100.00
68941;BME280;55982;51.476;7.552;2024-03-07T11:49:55;100466.09;;;9.69;100.00
68941;BME280;55982;51.476;7.552;2024-03-07T11:52:23;100471.13;;;9.32;100.00
68941;BME280;55982;51.476;7.552;2024-03-07T11:54:48;100461.03;;;9.61;100.00
68941;BME280;55982;51.476;7.552;2024-03-07T11:57:16;100454.88;;;10.48;100.00
68941;BME280;55982;51.476;7.552;2024-03-07T11:59:44;100449.44;;;11.91;100.00
68941;BME280;55982;51.476;7.552;2024-03-07T12:02:13;100439.81;;;11.92;100.00
68941;BME280;55982;51.476;7.552;2024-03-07T12:04:40;100445.75;;;11.99;100.00
68941;BME280;55982;51.476;7.552;2024-03-07T12:07:06;100439.72;;;10.97;100.00
68941;BME280;55982;51.476;7.552;2024-03-07T12:09:31;100439.13;;;10.51;100.00
68941;BME280;55982;51.476;7.552;2024-03-07T12:11:57;100443.47;;;10.10;100.00
68941;BME280;55982;51.476;7.552;2024-03-07T12:14:24;100438.94;;;9.77;100.00
68941;BME280;55982;51.476;7.552;2024-03-07T12:16:49;100429.44;;;10.54;100.00
68941;BME280;55982;51.476;7.552;2024-03-07T12:19:16;100418.22;;;10.11;100.00
68941;BME280;55982;51.476;7.552;2024-03-07T12:21:42;100419.19;;;11.80;100.00
68941;BME280;55982;51.476;7.552;2024-03-07T12:24:14;100422.91;;;12.31;100.00
68941;BME280;55982;51.476;7.552;2024-03-07T12:26:40;100414.63;;;12.16;100.00
68941;BME280;55982;51.476;7.552;2024-03-07T12:29:11;100414.94;;;12.88;100.00
68941;BME280;55982;51.476;7.552;2024-03-07T12:31:37;100417.81;;;11.67;100.00
68941;BME280;55982;51.476;7.552;2024-03-07T12:34:02;100408.09;;;10.34;100.00
68941;BME280;55982;51.476;7.552;2024-03-07T12:36:29;100410.50;;;10.45;100.00
68941;BME280;55982;51.476;7.552;2024-03-07T12:38:59;100409.59;;;10.06;100.00
68941;BME280;55982;51.476;7.552;2024-03-07T12:41:34;100403.09;;;10.25;100.00
68941;BME280;55982;51.476;7.552;2024-03-07T12:43:59;100392.59;;;10.63;100.00
68941;BME280;55982;51.476;7.552;2024-03-07T12:46:24;100405.09;;;11.52;100.00
68941;BME280;55982;51.476;7.552;2024-03-07T12:48:50;100398.44;;;11.06;100.00
68941;BME280;55982;51.476;7.552;2024-03-07T12:51:15;100391.84;;;10.20;100.00
68941;BME280;55982;51.476;7.552;2024-03-07T12:53:43;100389.19;;;9.82;100.00
68941;BME280;55982;51.476;7.552;2024-03-07T12:56:08;100387.25;;;9.04;100.00
68941;BME280;55982;51.476;7.552;2024-03-07T12:58:34;100386.59;;;9.38;100.00
68941;BME280;55982;51.476;7.552;2024-03-07T13:00:59;100380.00;;;9.64;100.00
68941;BME280;55982;51.476;7.552;2024-03-07T13:03:25;100376.88;;;9.46;100.00
68941;BME280;55982;51.476;7.552;2024-03-07T13:05:55;100381.44;;;9.35;100.00
68941;BME280;55982;51.476;7.552;2024-03-07T13:08:20;100375.72;;;9.14;100.00
68941;BME280;55982;51.476;7.552;2024-03-07T13:10:50;100381.03;;;9.56;100.00
68941;BME280;55982;51.476;7.552;2024-03-07T13:13:15;100380.78;;;9.68;100.00
68941;BME280;55982;51.476;7.552;2024-03-07T13:15:41;100376.56;;;10.02;100.00
68941;BME280;55982;51.476;7.552;2024-03-07T13:18:08;100382.72;;;9.57;100.00
68941;BME280;55982;51.476;7.552;2024-03-07T13:20:34;100378.19;;;9.23;100.00
68941;BME280;55982;51.476;7.552;2024-03-07T13:22:59;100365.41;;;9.10;100.00
68941;BME280;55982;51.476;7.552;2024-03-07T13:25:26;100366.09;;;9.19;100.00
68941;BME280;55982;51.476;7.552;2024-03-07T13:28:02;100380.28;;;9.03;100.00
68941;BME280;55982;51.476;7.552;2024-03-07T13:30:28;100360.50;;;9.38;100.00
68941;BME280;55982;51.476;7.552;2024-03-07T13:32:57;100355.94;;;9.47;100.00
68941;BME280;55982;51.476;7.552;2024-03-07T13:35:23;100367.31;;;9.86;100.00
68941;BME280;55982;51.476;7.552;2024-03-07T13:37:50;100360.56;;;10.17;100.00
68941;BME280;55982;51.476;7.552;2024-03-07T13:40:15;100352.47;;;9.88;100.00
68941;BME280;55982;51.476;7.552;2024-03-07T13:45:18;100340.78;;;10.04;100.00
68941;BME280;55982;51.476;7.552;2024-03-07T13:47:46;100339.78;;;10.11;100.00
68941;BME280;55982;51.476;7.552;2024-03-07T13:50:13;100334.34;;;10.20;100.00
68941;BME280;55982;51.476;7.552;2024-03-07T13:52:38;100330.69;;;10.27;100.00